Time,TemperatureF,DewpointF,PressureIn,WindDirection,WindDirectionDegrees,WindSpeedMPH,WindSpeedGustMPH,Humidity,HourlyPrecipIn,Conditions,Clouds,dailyrainin,SoftwareType,DateUTC
2013-02-13 00:00:00,69.9,67.2,29.92,SSW,200,6.0,12.0,91,0.00,CLR,,0.00,WeatherDisplay:10.37,2013-02-13 05:00:00,
2013-02-13 00:15:00,69.6,67.2,29.92,South,188,3.0,9.0,92,0.00,CLR,,0.00,WeatherDisplay:10.37,2013-02-13 05:15:00,
2013-02-13 00:30:00,69.3,67.2,29.92,South,186,5.0,10.0,93,0.00,CLR,,0.00,WeatherDisplay:10.37,2013-02-13 05:30:00,
2013-02-13 00:45:00,69.3,67.2,29.91,South,191,1.0,10.0,93,0.00,CLR,,0.00,WeatherDisplay:10.37,2013-02-13 05:45:00,
2013-02-13 01:00:00,69.3,67.1,29.92,SSW,202,1.0,8.0,93,0.00,CLR,,0.00,WeatherDisplay:10.37,2013-02-13 06:00:00,
2013-02-13 01:15:00,69.4,67.3,29.92,SSW,198,1.0,9.0,93,0.00,CLR,,0.00,WeatherDisplay:10.37,2013-02-13 06:15:00,
2013-02-13 01:30:00,69.7,67.6,29.92,SSW,195,2.0,8.0,93,0.00,CLR,,0.00,WeatherDisplay:10.37,2013-02-13 06:30:00,
2013-02-13 01:45:00,70.2,68.1,29.91,SSW,200,6.0,10.0,93,0.00,CLR,,0.00,WeatherDisplay:10.37,2013-02-13 06:45:00,
2013-02-13 02:00:00,70.5,68.1,29.90,SSW,195,7.0,12.0,92,0.00,CLR,,0.00,WeatherDisplay:10.37,2013-02-13 07:00:00,
2013-02-13 02:15:00,70.8,68.4,29.89,SSW,193,5.0,9.0,92,0.00,CLR,,0.00,WeatherDisplay:10.37,2013-02-13 07:15:00,
2013-02-13 02:30:00,71.1,68.7,29.89,SSW,204,5.0,10.0,92,0.00,CLR,,0.00,WeatherDisplay:10.37,2013-02-13 07:30:00,
2013-02-13 02:45:00,71.4,68.9,29.89,SSW,199,3.0,12.0,92,0.00,CLR,,0.00,WeatherDisplay:10.37,2013-02-13 07:45:00,
2013-02-13 03:00:00,71.6,69.1,29.88,SSW,192,9.0,15.0,92,0.00,CLR,,0.00,WeatherDisplay:10.37,2013-02-13 08:00:00,
2013-02-13 03:15:00,71.7,68.9,29.88,SSW,197,6.0,10.0,91,0.00,CLR,,0.00,WeatherDisplay:10.37,2013-02-13 08:15:00,
2013-02-13 03:30:00,71.9,69.1,29.88,SSW,199,5.0,10.0,91,0.00,CLR,,0.00,WeatherDisplay:10.37,2013-02-13 08:30:00,
2013-02-13 03:45:00,72.0,69.2,29.88,SSW,199,2.0,11.0,91,0.00,CLR,,0.00,WeatherDisplay:10.37,2013-02-13 08:45:00,
2013-02-13 04:00:00,72.2,69.4,29.88,SSW,209,5.0,12.0,91,0.00,CLR,,0.00,WeatherDisplay:10.37,2013-02-13 09:00:00,
2013-02-13 04:15:00,72.5,69.7,29.87,SSW,202,0.0,9.0,91,0.00,CLR,,0.00,WeatherDisplay:10.37,2013-02-13 09:15:00,
2013-02-13 04:30:00,72.8,70.0,29.87,SSW,209,2.0,9.0,91,0.00,CLR,,0.00,WeatherDisplay:10.37,2013-02-13 09:30:00,
2013-02-13 04:45:00,72.9,69.8,29.88,SW,219,2.0,9.0,90,0.00,CLR,,0.00,WeatherDisplay:10.37,2013-02-13 09:45:00,
2013-02-13 05:00:00,73.0,69.9,29.87,SSW,209,5.0,12.0,90,0.00,CLR,,0.00,WeatherDisplay:10.37,2013-02-13 10:00:00,
2013-02-13 05:15:00,73.1,70.0,29.87,SW,216,1.0,15.0,90,0.00,CLR,,0.00,WeatherDisplay:10.37,2013-02-13 10:15:00,
2013-02-13 05:30:00,73.1,70.0,29.87,SSW,205,3.0,12.0,90,0.00,CLR,,0.00,WeatherDisplay:10.37,2013-02-13 10:30:00,
2013-02-13 05:45:00,73.2,70.1,29.87,SW,215,3.0,11.0,90,0.00,CLR,,0.00,WeatherDisplay:10.37,2013-02-13 10:45:00,
2013-02-13 06:00:00,73.4,70.3,29.87,SSW,204,2.0,11.0,90,0.00,CLR,,0.00,WeatherDisplay:10.37,2013-02-13 11:00:00,
2013-02-13 06:15:00,73.7,70.3,29.87,SW,227,3.0,9.0,89,0.00,CLR,,0.00,WeatherDisplay:10.37,2013-02-13 11:15:00,
2013-02-13 06:30:00,73.9,70.5,29.86,SW,224,3.0,13.0,89,0.00,CLR,,0.00,WeatherDisplay:10.37,2013-02-13 11:30:00,
2013-02-13 06:45:00,74.0,70.2,29.87,SSW,206,3.0,12.0,88,0.00,CLR,,0.00,WeatherDisplay:10.37,2013-02-13 11:45:00,
2013-02-13 07:00:00,74.1,70.3,29.87,SSW,200,5.0,16.0,88,0.00,CLR,,0.00,WeatherDisplay:10.37,2013-02-13 12:00:00,
2013-02-13 07:15:00,74.2,70.4,29.88,SW,227,3.0,12.0,88,0.00,CLR,,0.00,WeatherDisplay:10.37,2013-02-13 12:15:00,
2013-02-13 07:30:00,74.4,70.3,29.88,WSW,240,3.0,12.0,87,0.00,CLR,,0.00,WeatherDisplay:10.37,2013-02-13 12:30:00,
2013-02-13 07:45:00,74.6,70.5,29.89,SW,222,3.0,12.0,87,0.00,CLR,,0.00,WeatherDisplay:10.37,2013-02-13 12:45:00,
2013-02-13 08:00:00,74.6,70.5,29.89,SW,217,5.0,13.0,87,0.00,CLR,,0.00,WeatherDisplay:10.37,2013-02-13 13:00:00,
2013-02-13 08:15:00,74.6,70.5,29.89,SSW,209,2.0,16.0,87,0.00,CLR,,0.00,WeatherDisplay:10.37,2013-02-13 13:15:00,
2013-02-13 08:30:00,74.6,70.5,29.89,SW,225,5.0,12.0,87,0.00,CLR,,0.00,WeatherDisplay:10.37,2013-02-13 13:30:00,
2013-02-13 08:45:00,74.9,70.8,29.89,SSW,210,5.0,12.0,87,0.00,CLR,,0.00,WeatherDisplay:10.37,2013-02-13 13:45:00,
2013-02-13 09:00:00,75.0,70.5,29.90,SW,214,7.0,13.0,86,0.00,CLR,,0.00,WeatherDisplay:10.37,2013-02-13 14:00:00,
2013-02-13 09:15:00,74.9,70.4,29.90,SSW,200,5.0,12.0,86,0.00,CLR,,0.00,WeatherDisplay:10.37,2013-02-13 14:15:00,
2013-02-13 09:30:00,74.5,70.4,29.91,SSW,199,5.0,12.0,87,0.00,CLR,,0.00,WeatherDisplay:10.37,2013-02-13 14:30:00,
2013-02-13 09:45:00,73.1,70.7,29.91,SSW,204,0.0,10.0,92,0.03,RA,,0.03,WeatherDisplay:10.37,2013-02-13 14:45:00,
2013-02-13 10:00:00,72.5,70.7,29.90,SSW,198,1.0,8.0,94,0.01,CLR,,0.04,WeatherDisplay:10.37,2013-02-13 15:00:00,
2013-02-13 10:15:00,72.8,71.0,29.90,SSW,195,2.0,10.0,94,0.00,CLR,,0.04,WeatherDisplay:10.37,2013-02-13 15:15:00,
2013-02-13 10:30:00,73.1,71.0,29.91,SW,222,2.0,15.0,93,0.00,CLR,,0.04,WeatherDisplay:10.37,2013-02-13 15:30:00,
2013-02-13 10:45:00,73.4,70.9,29.92,SW,223,3.0,15.0,92,0.00,CLR,,0.04,WeatherDisplay:10.37,2013-02-13 15:45:00,
2013-02-13 11:00:00,73.8,71.0,29.92,SW,227,1.0,9.0,91,0.00,CLR,,0.04,WeatherDisplay:10.37,2013-02-13 16:00:00,
2013-02-13 11:15:00,73.7,70.9,29.91,SW,218,3.0,9.0,91,0.00,CLR,,0.04,WeatherDisplay:10.37,2013-02-13 16:15:00,
2013-02-13 11:30:00,73.8,71.0,29.90,SW,217,3.0,10.0,91,0.00,CLR,,0.04,WeatherDisplay:10.37,2013-02-13 16:30:00,
2013-02-13 11:45:00,74.2,71.4,29.88,SW,216,2.0,12.0,91,0.00,CLR,,0.04,WeatherDisplay:10.37,2013-02-13 16:45:00,
2013-02-13 12:00:00,74.7,70.9,29.89,SW,220,6.0,12.0,88,0.00,CLR,,0.04,WeatherDisplay:10.37,2013-02-13 17:00:00,
2013-02-13 12:15:00,76.0,71.5,29.89,WSW,250,1.0,12.0,86,0.00,CLR,,0.04,WeatherDisplay:10.37,2013-02-13 17:15:00,
2013-02-13 12:30:00,76.9,71.3,29.89,West,281,1.0,12.0,83,0.00,CLR,,0.04,WeatherDisplay:10.37,2013-02-13 17:30:00,
2013-02-13 12:45:00,76.6,70.7,29.89,WSW,251,2.0,9.0,82,0.00,CLR,,0.04,WeatherDisplay:10.37,2013-02-13 17:45:00,
2013-02-13 13:00:00,75.3,70.5,29.88,SW,227,2.0,9.0,85,0.00,CLR,,0.04,WeatherDisplay:10.37,2013-02-13 18:00:00,
2013-02-13 13:15:00,74.5,70.7,29.87,WSW,242,1.0,8.0,88,0.01,RA,,0.05,WeatherDisplay:10.37,2013-02-13 18:15:00,
2013-02-13 13:30:00,74.7,70.9,29.86,SW,224,2.0,7.0,88,0.00,CLR,,0.05,WeatherDisplay:10.37,2013-02-13 18:30:00,
2013-02-13 13:45:00,75.3,71.2,29.85,SW,219,1.0,8.0,87,0.00,CLR,,0.05,WeatherDisplay:10.37,2013-02-13 18:45:00,
2013-02-13 14:00:00,75.4,71.3,29.84,SSW,213,1.0,9.0,87,0.00,CLR,,0.05,WeatherDisplay:10.37,2013-02-13 19:00:00,
2013-02-13 14:15:00,76.0,71.2,29.85,WSW,248,2.0,9.0,85,0.00,CLR,,0.05,WeatherDisplay:10.37,2013-02-13 19:15:00,
2013-02-13 14:30:00,75.8,71.0,29.85,WSW,250,1.0,7.0,85,0.00,CLR,,0.05,WeatherDisplay:10.37,2013-02-13 19:30:00,
2013-02-13 14:45:00,76.2,70.7,29.85,WSW,250,1.0,7.0,83,0.00,CLR,,0.05,WeatherDisplay:10.37,2013-02-13 19:45:00,
2013-02-13 15:00:00,75.7,69.5,29.85,WNW,286,5.0,16.0,81,0.00,CLR,,0.05,WeatherDisplay:10.37,2013-02-13 20:00:00,
2013-02-13 15:15:00,73.8,66.9,29.87,West,279,2.0,14.0,79,0.00,CLR,,0.05,WeatherDisplay:10.37,2013-02-13 20:15:00,
2013-02-13 15:30:00,72.4,65.5,29.86,West,265,2.0,15.0,79,0.00,CLR,,0.05,WeatherDisplay:10.37,2013-02-13 20:30:00,
2013-02-13 15:45:00,72.4,66.2,29.84,WNW,291,0.0,4.0,81,0.00,CLR,,0.05,WeatherDisplay:10.37,2013-02-13 20:45:00,
2013-02-13 16:00:00,72.5,65.3,29.84,SW,221,0.0,3.0,78,0.00,CLR,,0.05,WeatherDisplay:10.37,2013-02-13 21:00:00,
2013-02-13 16:15:00,72.3,62.4,29.86,SW,216,0.0,9.0,71,0.00,CLR,,0.05,WeatherDisplay:10.37,2013-02-13 21:15:00,
2013-02-13 16:30:00,71.7,61.4,29.87,WSW,247,1.0,6.0,70,0.00,CLR,,0.05,WeatherDisplay:10.37,2013-02-13 21:30:00,
2013-02-13 16:45:00,71.1,63.1,29.88,SW,230,1.0,7.0,76,0.00,CLR,,0.05,WeatherDisplay:10.37,2013-02-13 21:45:00,
2013-02-13 17:00:00,70.7,64.9,29.89,SW,230,1.0,9.0,82,0.00,CLR,,0.05,WeatherDisplay:10.37,2013-02-13 22:00:00,
2013-02-13 17:15:00,70.4,66.0,29.89,SW,218,0.0,6.0,86,0.00,CLR,,0.05,WeatherDisplay:10.37,2013-02-13 22:15:00,
2013-02-13 17:30:00,70.2,66.8,29.89,West,272,1.0,5.0,89,0.00,CLR,,0.05,WeatherDisplay:10.37,2013-02-13 22:30:00,
2013-02-13 17:45:00,70.2,66.1,29.89,SSW,197,0.0,6.0,87,0.00,CLR,,0.05,WeatherDisplay:10.37,2013-02-13 22:45:00,
2013-02-13 18:00:00,70.0,64.9,29.89,South,190,0.0,0.0,84,0.00,CLR,,0.05,WeatherDisplay:10.37,2013-02-13 23:00:00,
2013-02-13 18:15:00,69.7,64.3,29.89,South,190,0.0,2.0,83,0.00,CLR,,0.05,WeatherDisplay:10.37,2013-02-13 23:15:00,
2013-02-13 18:30:00,69.4,64.0,29.89,South,190,0.0,1.0,83,0.00,CLR,,0.05,WeatherDisplay:10.37,2013-02-13 23:30:00,
2013-02-13 18:45:00,69.1,62.7,29.90,South,190,0.0,2.0,80,0.00,CLR,,0.05,WeatherDisplay:10.37,2013-02-13 23:45:00,
2013-02-13 19:00:00,69.1,61.9,29.90,South,190,0.0,3.0,78,0.00,CLR,,0.05,WeatherDisplay:10.37,2013-02-14 00:00:00,
2013-02-13 19:15:00,68.8,62.4,29.91,SSW,193,0.0,4.0,80,0.00,CLR,,0.05,WeatherDisplay:10.37,2013-02-14 00:15:00,
2013-02-13 19:30:00,68.6,62.9,29.91,WNW,297,0.0,5.0,82,0.00,CLR,,0.05,WeatherDisplay:10.37,2013-02-14 00:30:00,
2013-02-13 19:45:00,68.0,62.6,29.91,NW,307,0.0,3.0,83,0.00,CLR,,0.05,WeatherDisplay:10.37,2013-02-14 00:45:00,
2013-02-13 20:00:00,67.3,63.0,29.91,NW,307,0.0,1.0,86,0.00,CLR,,0.05,WeatherDisplay:10.37,2013-02-14 01:00:00,
2013-02-13 20:15:00,66.7,63.1,29.92,NW,307,0.0,0.0,88,0.00,CLR,,0.05,WeatherDisplay:10.37,2013-02-14 01:15:00,
2013-02-13 20:30:00,66.4,62.7,29.93,NW,307,0.0,2.0,88,0.00,CLR,,0.05,WeatherDisplay:10.37,2013-02-14 01:30:00,
2013-02-13 20:45:00,66.5,59.8,29.95,NW,308,0.0,3.0,79,0.00,CLR,,0.05,WeatherDisplay:10.37,2013-02-14 01:45:00,
2013-02-13 21:00:00,65.7,60.1,29.95,West,273,0.0,4.0,82,0.03,RA,,0.08,WeatherDisplay:10.37,2013-02-14 02:00:00,
2013-02-13 21:15:00,63.8,60.2,29.95,West,273,0.0,0.0,88,0.00,CLR,,0.08,WeatherDisplay:10.37,2013-02-14 02:15:00,
2013-02-13 21:30:00,62.8,60.1,29.96,West,273,0.0,0.0,91,0.00,CLR,,0.08,WeatherDisplay:10.37,2013-02-14 02:30:00,
2013-02-13 21:45:00,62.2,59.8,29.96,West,273,0.0,0.0,92,0.00,CLR,,0.08,WeatherDisplay:10.37,2013-02-14 02:45:00,
2013-02-13 22:00:00,61.9,59.9,29.97,West,273,0.0,0.0,93,0.00,CLR,,0.08,WeatherDisplay:10.37,2013-02-14 03:00:00,
2013-02-13 22:15:00,61.5,57.9,29.97,West,273,0.0,0.0,88,0.00,CLR,,0.08,WeatherDisplay:10.37,2013-02-14 03:15:00,
2013-02-13 22:30:00,61.4,57.8,29.97,West,273,0.0,0.0,88,0.00,CLR,,0.08,WeatherDisplay:10.37,2013-02-14 03:30:00,
2013-02-13 22:45:00,61.5,57.6,29.97,West,273,0.0,0.0,87,0.00,CLR,,0.08,WeatherDisplay:10.37,2013-02-14 03:45:00,
2013-02-13 23:00:00,62.0,58.4,29.97,West,273,0.0,0.0,88,0.00,CLR,,0.08,WeatherDisplay:10.37,2013-02-14 04:00:00,
2013-02-13 23:15:00,62.4,58.1,29.97,NW,309,0.0,4.0,86,0.00,CLR,,0.08,WeatherDisplay:10.37,2013-02-14 04:15:00,
2013-02-13 23:30:00,62.7,57.5,29.96,NW,307,0.0,4.0,83,0.00,CLR,,0.08,WeatherDisplay:10.37,2013-02-14 04:30:00,
2013-02-13 23:45:00,62.6,57.4,29.96,NW,306,0.0,0.0,83,0.00,CLR,,0.08,WeatherDisplay:10.37,2013-02-14 04:45:00,